sensor_id;sensor_type;location;lat;lon;timestamp;P1;durP1;ratioP1;P2;durP2;ratioP2
41923;SDS011;27613;48.116;11.656;2022-11-21T00:00:48;0.80;;;0.80;;
41923;SDS011;27613;48.116;11.656;2022-11-21T00:03:16;0.75;;;0.75;;
41923;SDS011;27613;48.116;11.656;2022-11-21T00:05:42;1.25;;;0.90;;
41923;SDS011;27613;48.116;11.656;2022-11-21T00:08:10;1.58;;;1.00;;
41923;SDS011;27613;48.116;11.656;2022-11-21T00:10:37;1.00;;;0.90;;
41923;SDS011;27613;48.116;11.656;2022-11-21T00:13:03;1.02;;;0.85;;
41923;SDS011;27613;48.116;11.656;2022-11-21T00:15:30;1.00;;;0.73;;
41923;SDS011;27613;48.116;11.656;2022-11-21T00:17:55;0.70;;;0.70;;
41923;SDS011;27613;48.116;11.656;2022-11-21T00:20:21;0.70;;;0.70;;
41923;SDS011;27613;48.116;11.656;2022-11-21T00:22:47;0.60;;;0.60;;
41923;SDS011;27613;48.116;11.656;2022-11-21T00:25:13;0.80;;;0.80;;
41923;SDS011;27613;48.116;11.656;2022-11-21T00:27:39;0.82;;;0.82;;
41923;SDS011;27613;48.116;11.656;2022-11-21T00:30:05;0.63;;;0.63;;
41923;SDS011;27613;48.116;11.656;2022-11-21T00:32:32;0.73;;;0.73;;
41923;SDS011;27613;48.116;11.656;2022-11-21T00:34:58;1.25;;;0.82;;
41923;SDS011;27613;48.116;11.656;2022-11-21T00:37:24;0.70;;;0.70;;
41923;SDS011;27613;48.116;11.656;2022-11-21T00:39:49;0.70;;;0.70;;
41923;SDS011;27613;48.116;11.656;2022-11-21T00:42:15;0.98;;;0.88;;
41923;SDS011;27613;48.116;11.656;2022-11-21T00:44:40;1.00;;;0.90;;
41923;SDS011;27613;48.116;11.656;2022-11-21T00:47:06;0.77;;;0.77;;
41923;SDS011;27613;48.116;11.656;2022-11-21T00:49:31;0.55;;;0.55;;
41923;SDS011;27613;48.116;11.656;2022-11-21T00:51:57;0.65;;;0.65;;
41923;SDS011;27613;48.116;11.656;2022-11-21T00:54:23;1.05;;;0.90;;
41923;SDS011;27613;48.116;11.656;2022-11-21T00:56:48;0.73;;;0.73;;
41923;SDS011;27613;48.116;11.656;2022-11-21T00:59:14;1.23;;;0.70;;
41923;SDS011;27613;48.116;11.656;2022-11-21T01:01:39;0.82;;;0.70;;
41923;SDS011;27613;48.116;11.656;2022-11-21T01:04:05;0.75;;;0.75;;
41923;SDS011;27613;48.116;11.656;2022-11-21T01:06:31;0.93;;;0.82;;
41923;SDS011;27613;48.116;11.656;2022-11-21T01:08:56;0.70;;;0.70;;
41923;SDS011;27613;48.116;11.656;2022-11-21T01:11:22;0.98;;;0.90;;
41923;SDS011;27613;48.116;11.656;2022-11-21T01:13:48;1.80;;;0.90;;
41923;SDS011;27613;48.116;11.656;2022-11-21T01:16:18;0.75;;;0.70;;
41923;SDS011;27613;48.116;11.656;2022-11-21T01:18:45;0.95;;;0.80;;
41923;SDS011;27613;48.116;11.656;2022-11-21T01:21:12;2.17;;;0.80;;
41923;SDS011;27613;48.116;11.656;2022-11-21T01:23:39;1.05;;;0.88;;
41923;SDS011;27613;48.116;11.656;2022-11-21T01:26:06;0.88;;;0.80;;
41923;SDS011;27613;48.116;11.656;2022-11-21T01:28:34;0.80;;;0.80;;
41923;SDS011;27613;48.116;11.656;2022-11-21T01:31:19;2.13;;;1.25;;
41923;SDS011;27613;48.116;11.656;2022-11-21T01:33:47;1.25;;;0.93;;
41923;SDS011;27613;48.116;11.656;2022-11-21T01:38:43;1.80;;;1.20;;
41923;SDS011;27613;48.116;11.656;2022-11-21T01:41:10;0.93;;;0.77;;
41923;SDS011;27613;48.116;11.656;2022-11-21T01:43:37;1.20;;;0.98;;
41923;SDS011;27613;48.116;11.656;2022-11-21T01:51:30;0.70;;;0.70;;
41923;SDS011;27613;48.116;11.656;2022-11-21T01:53:58;1.00;;;0.82;;
41923;SDS011;27613;48.116;11.656;2022-11-21T01:56:28;1.00;;;0.80;;
41923;SDS011;27613;48.116;11.656;2022-11-21T01:59:00;1.35;;;0.93;;
41923;SDS011;27613;48.116;11.656;2022-11-21T02:01:27;1.00;;;0.90;;
41923;SDS011;27613;48.116;11.656;2022-11-21T02:03:53;0.88;;;0.77;;
41923;SDS011;27613;48.116;11.656;2022-11-21T02:06:20;2.03;;;1.08;;
41923;SDS011;27613;48.116;11.656;2022-11-21T02:08:48;1.17;;;0.90;;
41923;SDS011;27613;48.116;11.656;2022-11-21T02:11:20;1.00;;;0.80;;
41923;SDS011;27613;48.116;11.656;2022-11-21T02:13:50;0.77;;;0.77;;
41923;SDS011;27613;48.116;11.656;2022-11-21T02:16:16;2.28;;;0.93;;
41923;SDS011;27613;48.116;11.656;2022-11-21T02:18:41;2.13;;;1.02;;
41923;SDS011;27613;48.116;11.656;2022-11-21T02:26:37;1.60;;;0.85;;
41923;SDS011;27613;48.116;11.656;2022-11-21T02:29:03;1.17;;;1.00;;
41923;SDS011;27613;48.116;11.656;2022-11-21T02:31:28;2.35;;;1.08;;
41923;SDS011;27613;48.116;11.656;2022-11-21T02:33:54;1.30;;;0.90;;
41923;SDS011;27613;48.116;11.656;2022-11-21T02:36:34;1.58;;;0.85;;
41923;SDS011;27613;48.116;11.656;2022-11-21T02:39:06;1.13;;;0.90;;
41923;SDS011;27613;48.116;11.656;2022-11-21T02:41:33;1.25;;;1.00;;
41923;SDS011;27613;48.116;11.656;2022-11-21T02:44:03;2.17;;;0.82;;
41923;SDS011;27613;48.116;11.656;2022-11-21T02:46:33;1.20;;;0.95;;
41923;SDS011;27613;48.116;11.656;2022-11-21T02:49:00;3.38;;;1.25;;
41923;SDS011;27613;48.116;11.656;2022-11-21T02:51:31;1.83;;;0.85;;
41923;SDS011;27613;48.116;11.656;2022-11-21T02:53:56;1.20;;;0.90;;
41923;SDS011;27613;48.116;11.656;2022-11-21T02:56:22;2.38;;;0.88;;
41923;SDS011;27613;48.116;11.656;2022-11-21T02:58:47;1.85;;;0.98;;
41923;SDS011;27613;48.116;11.656;2022-11-21T03:01:13;2.10;;;1.10;;
41923;SDS011;27613;48.116;11.656;2022-11-21T03:03:38;1.58;;;0.90;;
41923;SDS011;27613;48.116;11.656;2022-11-21T03:06:04;3.40;;;1.08;;
41923;SDS011;27613;48.116;11.656;2022-11-21T03:08:30;2.58;;;0.90;;
41923;SDS011;27613;48.116;11.656;2022-11-21T03:10:55;4.40;;;1.40;;
41923;SDS011;27613;48.116;11.656;2022-11-21T03:13:21;0.80;;;0.80;;
41923;SDS011;27613;48.116;11.656;2022-11-21T03:15:46;1.60;;;0.98;;
41923;SDS011;27613;48.116;11.656;2022-11-21T03:18:12;3.33;;;1.33;;
41923;SDS011;27613;48.116;11.656;2022-11-21T03:20:37;3.75;;;1.45;;
41923;SDS011;27613;48.116;11.656;2022-11-21T03:23:03;1.48;;;0.80;;
41923;SDS011;27613;48.116;11.656;2022-11-21T03:25:28;1.50;;;0.85;;
41923;SDS011;27613;48.116;11.656;2022-11-21T03:27:54;2.40;;;1.25;;
41923;SDS011;27613;48.116;11.656;2022-11-21T03:30:20;2.38;;;0.90;;
41923;SDS011;27613;48.116;11.656;2022-11-21T03:32:49;3.05;;;1.25;;
41923;SDS011;27613;48.116;11.656;2022-11-21T03:35:14;2.55;;;1.17;;
41923;SDS011;27613;48.116;11.656;2022-11-21T03:37:40;1.88;;;0.90;;
41923;SDS011;27613;48.116;11.656;2022-11-21T03:40:06;1.83;;;1.00;;
41923;SDS011;27613;48.116;11.656;2022-11-21T03:42:32;1.42;;;0.90;;
41923;SDS011;27613;48.116;11.656;2022-11-21T03:44:58;2.45;;;0.98;;
41923;SDS011;27613;48.116;11.656;2022-11-21T03:47:24;2.08;;;1.30;;
41923;SDS011;27613;48.116;11.656;2022-11-21T03:49:51;3.92;;;1.65;;
41923;SDS011;27613;48.116;11.656;2022-11-21T03:52:17;2.60;;;1.23;;
41923;SDS011;27613;48.116;11.656;2022-11-21T03:54:42;1.60;;;0.90;;
41923;SDS011;27613;48.116;11.656;2022-11-21T03:57:08;2.30;;;1.05;;
41923;SDS011;27613;48.116;11.656;2022-11-21T03:59:33;1.55;;;0.98;;
41923;SDS011;27613;48.116;11.656;2022-11-21T04:01:59;1.23;;;0.95;;
41923;SDS011;27613;48.116;11.656;2022-11-21T04:04:24;1.58;;;1.10;;
41923;SDS011;27613;48.116;11.656;2022-11-21T04:06:50;15.52;;;1.75;;
41923;SDS011;27613;48.116;11.656;2022-11-21T04:09:15;5.85;;;1.70;;
41923;SDS011;27613;48.116;11.656;2022-11-21T04:11:41;2.75;;;1.05;;
41923;SDS011;27613;48.116;11.656;2022-11-21T04:14:06;1.58;;;0.98;;
41923;SDS011;27613;48.116;11.656;2022-11-21T04:16:32;3.58;;;1.08;;
41923;SDS011;27613;48.116;11.656;2022-11-21T04:18:58;2.47;;;1.27;;
41923;SDS011;27613;48.116;11.656;2022-11-21T04:21:23;2.08;;;1.02;;
41923;SDS011;27613;48.116;11.656;2022-11-21T04:23:49;4.70;;;1.33;;
41923;SDS011;27613;48.116;11.656;2022-11-21T04:26:14;2.42;;;1.17;;
41923;SDS011;27613;48.116;11.656;2022-11-21T04:28:40;4.10;;;1.25;;
41923;SDS011;27613;48.116;11.656;2022-11-21T04:31:06;2.00;;;1.10;;
41923;SDS011;27613;48.116;11.656;2022-11-21T04:33:32;3.30;;;1.35;;
41923;SDS011;27613;48.116;11.656;2022-11-21T04:35:58;1.15;;;0.90;;
41923;SDS011;27613;48.116;11.656;2022-11-21T04:38:23;2.50;;;1.15;;
41923;SDS011;27613;48.116;11.656;2022-11-21T04:40:49;2.45;;;1.13;;
41923;SDS011;27613;48.116;11.656;2022-11-21T04:43:15;2.22;;;0.88;;
41923;SDS011;27613;48.116;11.656;2022-11-21T04:45:40;2.28;;;0.88;;
41923;SDS011;27613;48.116;11.656;2022-11-21T04:48:07;2.78;;;1.13;;
41923;SDS011;27613;48.116;11.656;2022-11-21T04:50:33;4.47;;;1.00;;
41923;SDS011;27613;48.116;11.656;2022-11-21T04:52:58;3.25;;;1.08;;
41923;SDS011;27613;48.116;11.656;2022-11-21T04:55:27;3.25;;;0.98;;
41923;SDS011;27613;48.116;11.656;2022-11-21T04:57:55;3.13;;;1.15;;
41923;SDS011;27613;48.116;11.656;2022-11-21T05:00:21;3.35;;;1.10;;
41923;SDS011;27613;48.116;11.656;2022-11-21T05:02:46;2.85;;;1.20;;
41923;SDS011;27613;48.116;11.656;2022-11-21T05:05:12;2.90;;;1.17;;
41923;SDS011;27613;48.116;11.656;2022-11-21T05:07:37;2.47;;;1.02;;
41923;SDS011;27613;48.116;11.656;2022-11-21T05:10:06;3.15;;;1.20;;
41923;SDS011;27613;48.116;11.656;2022-11-21T05:12:33;3.13;;;1.20;;
41923;SDS011;27613;48.116;11.656;2022-11-21T05:15:19;1.30;;;0.88;;
41923;SDS011;27613;48.116;11.656;2022-11-21T05:17:45;7.88;;;1.65;;
41923;SDS011;27613;48.116;11.656;2022-11-21T05:20:10;1.65;;;0.95;;
41923;SDS011;27613;48.116;11.656;2022-11-21T05:22:37;1.13;;;0.85;;
41923;SDS011;27613;48.116;11.656;2022-11-21T05:25:03;2.80;;;1.27;;
41923;SDS011;27613;48.116;11.656;2022-11-21T05:27:30;2.63;;;1.27;;
41923;SDS011;27613;48.116;11.656;2022-11-21T05:29:55;0.98;;;0.80;;
41923;SDS011;27613;48.116;11.656;2022-11-21T05:32:21;8.07;;;1.35;;
41923;SDS011;27613;48.116;11.656;2022-11-21T05:34:46;2.65;;;1.20;;
41923;SDS011;27613;48.116;11.656;2022-11-21T05:37:12;3.17;;;1.30;;
41923;SDS011;27613;48.116;11.656;2022-11-21T05:39:37;2.70;;;1.30;;
41923;SDS011;27613;48.116;11.656;2022-11-21T05:42:03;2.05;;;0.88;;
41923;SDS011;27613;48.116;11.656;2022-11-21T05:44:29;0.98;;;0.88;;
41923;SDS011;27613;48.116;11.656;2022-11-21T05:46:54;2.08;;;1.08;;
41923;SDS011;27613;48.116;11.656;2022-11-21T05:49:20;2.58;;;1.00;;
41923;SDS011;27613;48.116;11.656;2022-11-21T05:51:45;2.78;;;1.02;;
41923;SDS011;27613;48.116;11.656;2022-11-21T05:54:11;2.00;;;0.90;;
41923;SDS011;27613;48.116;11.656;2022-11-21T05:56:38;1.08;;;0.73;;
41923;SDS011;27613;48.116;11.656;2022-11-21T05:59:04;1.63;;;0.90;;
41923;SDS011;27613;48.116;11.656;2022-11-21T06:01:29;1.83;;;0.80;;
41923;SDS011;27613;48.116;11.656;2022-11-21T06:04:14;2.22;;;1.00;;
41923;SDS011;27613;48.116;11.656;2022-11-21T06:06:39;2.15;;;0.90;;
41923;SDS011;27613;48.116;11.656;2022-11-21T06:09:05;3.63;;;1.42;;
41923;SDS011;27613;48.116;11.656;2022-11-21T06:11:31;3.10;;;1.25;;
41923;SDS011;27613;48.116;11.656;2022-11-21T06:13:57;4.65;;;1.20;;
41923;SDS011;27613;48.116;11.656;2022-11-21T06:16:22;4.05;;;1.20;;
41923;SDS011;27613;48.116;11.656;2022-11-21T06:18:48;3.60;;;1.30;;
41923;SDS011;27613;48.116;11.656;2022-11-21T06:23:46;1.52;;;1.00;;
41923;SDS011;27613;48.116;11.656;2022-11-21T06:26:15;1.73;;;1.05;;
41923;SDS011;27613;48.116;11.656;2022-11-21T06:28:42;4.63;;;1.88;;
41923;SDS011;27613;48.116;11.656;2022-11-21T06:31:09;2.45;;;1.25;;
41923;SDS011;27613;48.116;11.656;2022-11-21T06:33:42;1.83;;;1.15;;
41923;SDS011;27613;48.116;11.656;2022-11-21T06:36:09;2.08;;;1.02;;
41923;SDS011;27613;48.116;11.656;2022-11-21T06:38:37;4.07;;;1.23;;
41923;SDS011;27613;48.116;11.656;2022-11-21T06:41:21;3.67;;;1.25;;
41923;SDS011;27613;48.116;11.656;2022-11-21T06:43:49;2.13;;;1.20;;
41923;SDS011;27613;48.116;11.656;2022-11-21T06:46:15;1.48;;;0.93;;
41923;SDS011;27613;48.116;11.656;2022-11-21T06:48:41;2.38;;;1.08;;
41923;SDS011;27613;48.116;11.656;2022-11-21T06:53:43;2.50;;;1.13;;
41923;SDS011;27613;48.116;11.656;2022-11-21T06:56:09;1.58;;;0.90;;
41923;SDS011;27613;48.116;11.656;2022-11-21T06:58:35;2.05;;;1.10;;
41923;SDS011;27613;48.116;11.656;2022-11-21T07:01:07;2.00;;;1.20;;
41923;SDS011;27613;48.116;11.656;2022-11-21T07:03:34;2.33;;;1.10;;
41923;SDS011;27613;48.116;11.656;2022-11-21T07:06:00;0.65;;;0.65;;
41923;SDS011;27613;48.116;11.656;2022-11-21T07:08:27;2.65;;;0.90;;
41923;SDS011;27613;48.116;11.656;2022-11-21T07:10:54;2.05;;;1.05;;
41923;SDS011;27613;48.116;11.656;2022-11-21T07:13:20;2.40;;;1.10;;
41923;SDS011;27613;48.116;11.656;2022-11-21T07:15:46;1.77;;;0.90;;
41923;SDS011;27613;48.116;11.656;2022-11-21T07:18:13;1.10;;;0.90;;
41923;SDS011;27613;48.116;11.656;2022-11-21T07:20:39;0.90;;;0.80;;
41923;SDS011;27613;48.116;11.656;2022-11-21T07:23:05;1.73;;;0.70;;
41923;SDS011;27613;48.116;11.656;2022-11-21T07:25:32;1.98;;;1.05;;
41923;SDS011;27613;48.116;11.656;2022-11-21T07:27:58;1.00;;;0.80;;
41923;SDS011;27613;48.116;11.656;2022-11-21T07:30:24;1.35;;;0.93;;
41923;SDS011;27613;48.116;11.656;2022-11-21T07:32:56;1.40;;;0.80;;
41923;SDS011;27613;48.116;11.656;2022-11-21T07:35:22;0.90;;;0.80;;
41923;SDS011;27613;48.116;11.656;2022-11-21T07:37:48;1.83;;;0.90;;
41923;SDS011;27613;48.116;11.656;2022-11-21T07:40:14;2.33;;;0.90;;
41923;SDS011;27613;48.116;11.656;2022-11-21T07:42:40;0.70;;;0.70;;
41923;SDS011;27613;48.116;11.656;2022-11-21T07:45:05;1.80;;;1.10;;
41923;SDS011;27613;48.116;11.656;2022-11-21T07:47:31;2.05;;;0.90;;
41923;SDS011;27613;48.116;11.656;2022-11-21T07:49:57;2.38;;;1.10;;
41923;SDS011;27613;48.116;11.656;2022-11-21T07:52:22;1.45;;;0.80;;
41923;SDS011;27613;48.116;11.656;2022-11-21T07:54:49;2.55;;;0.88;;
41923;SDS011;27613;48.116;11.656;2022-11-21T07:57:14;1.27;;;0.93;;
41923;SDS011;27613;48.116;11.656;2022-11-21T07:59:40;1.23;;;0.80;;
41923;SDS011;27613;48.116;11.656;2022-11-21T08:02:05;1.00;;;0.90;;
41923;SDS011;27613;48.116;11.656;2022-11-21T08:04:31;1.88;;;1.05;;
41923;SDS011;27613;48.116;11.656;2022-11-21T08:06:56;1.48;;;0.93;;
41923;SDS011;27613;48.116;11.656;2022-11-21T08:09:22;0.80;;;0.63;;
41923;SDS011;27613;48.116;11.656;2022-11-21T08:11:52;0.60;;;0.50;;
41923;SDS011;27613;48.116;11.656;2022-11-21T08:14:17;1.08;;;0.70;;
41923;SDS011;27613;48.116;11.656;2022-11-21T08:16:43;0.40;;;0.40;;
41923;SDS011;27613;48.116;11.656;2022-11-21T08:19:08;3.53;;;2.00;;
41923;SDS011;27613;48.116;11.656;2022-11-21T08:21:34;1.27;;;0.93;;
41923;SDS011;27613;48.116;11.656;2022-11-21T08:24:00;1.83;;;0.70;;
41923;SDS011;27613;48.116;11.656;2022-11-21T08:26:25;1.35;;;0.80;;
41923;SDS011;27613;48.116;11.656;2022-11-21T08:28:51;1.67;;;0.90;;
41923;SDS011;27613;48.116;11.656;2022-11-21T08:31:16;0.82;;;0.55;;
41923;SDS011;27613;48.116;11.656;2022-11-21T08:33:42;0.57;;;0.57;;
41923;SDS011;27613;48.116;11.656;2022-11-21T08:36:07;2.38;;;0.80;;
41923;SDS011;27613;48.116;11.656;2022-11-21T08:38:34;0.70;;;0.65;;
41923;SDS011;27613;48.116;11.656;2022-11-21T08:40:59;2.10;;;1.00;;
41923;SDS011;27613;48.116;11.656;2022-11-21T08:43:44;1.17;;;1.02;;
41923;SDS011;27613;48.116;11.656;2022-11-21T08:46:09;1.42;;;0.85;;
41923;SDS011;27613;48.116;11.656;2022-11-21T08:48:35;1.45;;;0.90;;
41923;SDS011;27613;48.116;11.656;2022-11-21T08:51:00;3.03;;;1.00;;
41923;SDS011;27613;48.116;11.656;2022-11-21T08:53:26;1.88;;;0.90;;
41923;SDS011;27613;48.116;11.656;2022-11-21T08:55:52;2.88;;;1.00;;
41923;SDS011;27613;48.116;11.656;2022-11-21T08:58:18;1.80;;;1.15;;
41923;SDS011;27613;48.116;11.656;2022-11-21T09:00:44;1.73;;;0.80;;
41923;SDS011;27613;48.116;11.656;2022-11-21T09:03:09;2.13;;;1.02;;
41923;SDS011;27613;48.116;11.656;2022-11-21T09:05:35;1.70;;;1.00;;
41923;SDS011;27613;48.116;11.656;2022-11-21T09:08:00;1.25;;;1.00;;
41923;SDS011;27613;48.116;11.656;2022-11-21T09:10:26;1.60;;;0.90;;
41923;SDS011;27613;48.116;11.656;2022-11-21T09:12:52;2.53;;;1.20;;
41923;SDS011;27613;48.116;11.656;2022-11-21T09:15:18;15.00;;;1.13;;
41923;SDS011;27613;48.116;11.656;2022-11-21T09:18:03;1.58;;;1.00;;
41923;SDS011;27613;48.116;11.656;2022-11-21T09:20:32;1.88;;;1.00;;
41923;SDS011;27613;48.116;11.656;2022-11-21T09:23:07;1.65;;;1.02;;
41923;SDS011;27613;48.116;11.656;2022-11-21T09:25:34;1.20;;;0.77;;
41923;SDS011;27613;48.116;11.656;2022-11-21T09:28:03;1.23;;;0.82;;
41923;SDS011;27613;48.116;11.656;2022-11-21T09:30:30;2.30;;;1.05;;
41923;SDS011;27613;48.116;11.656;2022-11-21T09:33:00;2.97;;;1.02;;
41923;SDS011;27613;48.116;11.656;2022-11-21T09:35:26;2.28;;;0.90;;
41923;SDS011;27613;48.116;11.656;2022-11-21T09:37:51;1.67;;;0.77;;
41923;SDS011;27613;48.116;11.656;2022-11-21T09:40:17;1.98;;;1.00;;
41923;SDS011;27613;48.116;11.656;2022-11-21T09:47:51;1.88;;;0.80;;
41923;SDS011;27613;48.116;11.656;2022-11-21T09:53:14;1.67;;;0.70;;
41923;SDS011;27613;48.116;11.656;2022-11-21T09:56:03;2.03;;;0.82;;
41923;SDS011;27613;48.116;11.656;2022-11-21T10:01:43;2.10;;;0.82;;
41923;SDS011;27613;48.116;11.656;2022-11-21T10:04:09;2.50;;;1.05;;
41923;SDS011;27613;48.116;11.656;2022-11-21T10:07:19;2.08;;;1.10;;
41923;SDS011;27613;48.116;11.656;2022-11-21T10:12:27;2.33;;;1.00;;
41923;SDS011;27613;48.116;11.656;2022-11-21T10:25:37;2.10;;;1.10;;
41923;SDS011;27613;48.116;11.656;2022-11-21T10:30:43;2.72;;;1.20;;
41923;SDS011;27613;48.116;11.656;2022-11-21T10:33:15;1.98;;;1.00;;
41923;SDS011;27613;48.116;11.656;2022-11-21T10:35:50;2.08;;;1.10;;
41923;SDS011;27613;48.116;11.656;2022-11-21T10:38:20;2.83;;;1.25;;
41923;SDS011;27613;48.116;11.656;2022-11-21T10:41:13;2.17;;;0.90;;
41923;SDS011;27613;48.116;11.656;2022-11-21T10:43:44;9.43;;;7.28;;
41923;SDS011;27613;48.116;11.656;2022-11-21T10:46:34;3.90;;;1.50;;
41923;SDS011;27613;48.116;11.656;2022-11-21T10:49:00;7.07;;;2.03;;
41923;SDS011;27613;48.116;11.656;2022-11-21T10:54:11;1.80;;;0.93;;
41923;SDS011;27613;48.116;11.656;2022-11-21T10:57:15;5.68;;;1.77;;
41923;SDS011;27613;48.116;11.656;2022-11-21T10:59:59;5.93;;;1.30;;
41923;SDS011;27613;48.116;11.656;2022-11-21T11:02:27;2.63;;;1.23;;
41923;SDS011;27613;48.116;11.656;2022-11-21T11:07:40;2.85;;;1.25;;
41923;SDS011;27613;48.116;11.656;2022-11-21T11:13:02;2.72;;;1.05;;
41923;SDS011;27613;48.116;11.656;2022-11-21T11:15:56;2.60;;;1.13;;
41923;SDS011;27613;48.116;11.656;2022-11-21T11:18:38;3.65;;;1.40;;
41923;SDS011;27613;48.116;11.656;2022-11-21T11:21:11;2.33;;;1.08;;
41923;SDS011;27613;48.116;11.656;2022-11-21T11:23:41;3.25;;;1.15;;
41923;SDS011;27613;48.116;11.656;2022-11-21T11:26:26;2.88;;;1.25;;
41923;SDS011;27613;48.116;11.656;2022-11-21T11:32:01;3.25;;;1.15;;
41923;SDS011;27613;48.116;11.656;2022-11-21T11:34:35;6.45;;;1.90;;
41923;SDS011;27613;48.116;11.656;2022-11-21T11:37:19;5.13;;;1.60;;
41923;SDS011;27613;48.116;11.656;2022-11-21T11:46:11;3.20;;;1.30;;
41923;SDS011;27613;48.116;11.656;2022-11-21T11:48:58;2.83;;;1.38;;
41923;SDS011;27613;48.116;11.656;2022-11-21T11:51:34;1.98;;;1.20;;
41923;SDS011;27613;48.116;11.656;2022-11-21T11:56:41;2.05;;;1.13;;
41923;SDS011;27613;48.116;11.656;2022-11-21T12:02:02;3.30;;;1.30;;
41923;SDS011;27613;48.116;11.656;2022-11-21T12:04:43;2.83;;;1.27;;
41923;SDS011;27613;48.116;11.656;2022-11-21T12:07:21;4.72;;;1.60;;
41923;SDS011;27613;48.116;11.656;2022-11-21T12:10:14;4.25;;;1.85;;
41923;SDS011;27613;48.116;11.656;2022-11-21T12:13:01;2.75;;;1.10;;
41923;SDS011;27613;48.116;11.656;2022-11-21T12:15:45;2.20;;;1.23;;
41923;SDS011;27613;48.116;11.656;2022-11-21T12:48:20;3.03;;;1.30;;
41923;SDS011;27613;48.116;11.656;2022-11-21T12:51:33;2.95;;;1.02;;
41923;SDS011;27613;48.116;11.656;2022-11-21T12:57:15;3.28;;;1.45;;
41923;SDS011;27613;48.116;11.656;2022-11-21T13:04:54;1.90;;;1.02;;
41923;SDS011;27613;48.116;11.656;2022-11-21T13:07:22;2.22;;;1.00;;
41923;SDS011;27613;48.116;11.656;2022-11-21T13:09:52;1.45;;;0.95;;
41923;SDS011;27613;48.116;11.656;2022-11-21T13:12:41;1.83;;;0.88;;
41923;SDS011;27613;48.116;11.656;2022-11-21T13:15:25;4.93;;;1.63;;
41923;SDS011;27613;48.116;11.656;2022-11-21T13:17:55;1.65;;;0.88;;
41923;SDS011;27613;48.116;11.656;2022-11-21T13:20:38;3.40;;;1.33;;
41923;SDS011;27613;48.116;11.656;2022-11-21T13:29:09;2.42;;;1.20;;
41923;SDS011;27613;48.116;11.656;2022-11-21T13:31:39;2.40;;;0.90;;
41923;SDS011;27613;48.116;11.656;2022-11-21T13:37:04;2.65;;;0.90;;
41923;SDS011;27613;48.116;11.656;2022-11-21T13:39:31;2.15;;;0.98;;
41923;SDS011;27613;48.116;11.656;2022-11-21T13:42:02;2.40;;;1.00;;
41923;SDS011;27613;48.116;11.656;2022-11-21T13:44:50;3.53;;;1.40;;
41923;SDS011;27613;48.116;11.656;2022-11-21T13:55:07;3.80;;;1.20;;
41923;SDS011;27613;48.116;11.656;2022-11-21T14:00:20;2.75;;;0.95;;
41923;SDS011;27613;48.116;11.656;2022-11-21T14:08:21;2.40;;;1.05;;
41923;SDS011;27613;48.116;11.656;2022-11-21T14:10:49;2.25;;;1.17;;
41923;SDS011;27613;48.116;11.656;2022-11-21T14:13:31;3.28;;;1.15;;
41923;SDS011;27613;48.116;11.656;2022-11-21T14:16:08;5.28;;;1.20;;
41923;SDS011;27613;48.116;11.656;2022-11-21T14:18:37;2.20;;;1.00;;
41923;SDS011;27613;48.116;11.656;2022-11-21T14:21:14;3.75;;;1.40;;
41923;SDS011;27613;48.116;11.656;2022-11-21T14:23:46;15.63;;;1.75;;
41923;SDS011;27613;48.116;11.656;2022-11-21T14:26:16;2.88;;;1.30;;
41923;SDS011;27613;48.116;11.656;2022-11-21T14:28:45;8.70;;;1.13;;
41923;SDS011;27613;48.116;11.656;2022-11-21T14:31:11;3.13;;;1.13;;
41923;SDS011;27613;48.116;11.656;2022-11-21T14:33:38;10.18;;;1.30;;
41923;SDS011;27613;48.116;11.656;2022-11-21T14:46:21;3.25;;;1.20;;
41923;SDS011;27613;48.116;11.656;2022-11-21T14:48:47;3.67;;;1.40;;
41923;SDS011;27613;48.116;11.656;2022-11-21T14:51:14;3.22;;;0.98;;
41923;SDS011;27613;48.116;11.656;2022-11-21T14:53:41;3.88;;;1.35;;
41923;SDS011;27613;48.116;11.656;2022-11-21T14:56:09;4.80;;;1.73;;
41923;SDS011;27613;48.116;11.656;2022-11-21T14:58:43;4.03;;;1.48;;
41923;SDS011;27613;48.116;11.656;2022-11-21T15:01:19;5.93;;;1.95;;
41923;SDS011;27613;48.116;11.656;2022-11-21T15:03:56;3.70;;;1.63;;
41923;SDS011;27613;48.116;11.656;2022-11-21T15:06:29;4.45;;;1.90;;
41923;SDS011;27613;48.116;11.656;2022-11-21T15:09:03;2.85;;;1.48;;
41923;SDS011;27613;48.116;11.656;2022-11-21T15:11:37;5.45;;;1.65;;
41923;SDS011;27613;48.116;11.656;2022-11-21T15:14:19;3.85;;;1.52;;
41923;SDS011;27613;48.116;11.656;2022-11-21T15:16:46;4.32;;;1.75;;
41923;SDS011;27613;48.116;11.656;2022-11-21T15:19:17;5.18;;;2.30;;
41923;SDS011;27613;48.116;11.656;2022-11-21T15:21:48;10.30;;;2.15;;
41923;SDS011;27613;48.116;11.656;2022-11-21T15:24:16;4.25;;;1.67;;
41923;SDS011;27613;48.116;11.656;2022-11-21T15:26:43;4.72;;;2.05;;
41923;SDS011;27613;48.116;11.656;2022-11-21T15:29:17;5.47;;;2.53;;
41923;SDS011;27613;48.116;11.656;2022-11-21T15:31:44;4.55;;;2.35;;
41923;SDS011;27613;48.116;11.656;2022-11-21T15:34:11;11.10;;;3.38;;
41923;SDS011;27613;48.116;11.656;2022-11-21T15:37:02;5.05;;;2.70;;
41923;SDS011;27613;48.116;11.656;2022-11-21T15:39:29;4.55;;;2.85;;
41923;SDS011;27613;48.116;11.656;2022-11-21T15:41:55;6.38;;;3.05;;
41923;SDS011;27613;48.116;11.656;2022-11-21T15:44:58;8.60;;;4.05;;
41923;SDS011;27613;48.116;11.656;2022-11-21T15:47:24;9.05;;;5.53;;
41923;SDS011;27613;48.116;11.656;2022-11-21T15:49:51;15.18;;;6.20;;
41923;SDS011;27613;48.116;11.656;2022-11-21T15:52:16;12.95;;;7.32;;
41923;SDS011;27613;48.116;11.656;2022-11-21T15:54:42;6.75;;;4.78;;
41923;SDS011;27613;48.116;11.656;2022-11-21T15:57:08;7.43;;;4.03;;
41923;SDS011;27613;48.116;11.656;2022-11-21T15:59:34;8.57;;;3.85;;
41923;SDS011;27613;48.116;11.656;2022-11-21T16:01:59;5.80;;;2.95;;
41923;SDS011;27613;48.116;11.656;2022-11-21T16:04:25;5.82;;;3.30;;
41923;SDS011;27613;48.116;11.656;2022-11-21T16:06:51;7.57;;;3.85;;
41923;SDS011;27613;48.116;11.656;2022-11-21T16:09:17;13.45;;;5.18;;
41923;SDS011;27613;48.116;11.656;2022-11-21T16:11:42;9.00;;;5.28;;
41923;SDS011;27613;48.116;11.656;2022-11-21T16:14:11;10.70;;;5.75;;
41923;SDS011;27613;48.116;11.656;2022-11-21T16:16:38;12.88;;;5.68;;
41923;SDS011;27613;48.116;11.656;2022-11-21T16:19:05;9.40;;;5.47;;
41923;SDS011;27613;48.116;11.656;2022-11-21T16:21:32;8.65;;;5.00;;
41923;SDS011;27613;48.116;11.656;2022-11-21T16:23:57;8.15;;;5.20;;
41923;SDS011;27613;48.116;11.656;2022-11-21T16:26:23;6.47;;;4.05;;
41923;SDS011;27613;48.116;11.656;2022-11-21T16:28:56;8.38;;;4.13;;
41923;SDS011;27613;48.116;11.656;2022-11-21T16:31:26;5.95;;;3.38;;
41923;SDS011;27613;48.116;11.656;2022-11-21T16:33:53;4.88;;;2.53;;
41923;SDS011;27613;48.116;11.656;2022-11-21T16:36:22;5.63;;;2.55;;
41923;SDS011;27613;48.116;11.656;2022-11-21T16:38:54;3.30;;;2.28;;
41923;SDS011;27613;48.116;11.656;2022-11-21T16:41:21;16.35;;;8.57;;
41923;SDS011;27613;48.116;11.656;2022-11-21T16:43:49;21.45;;;11.95;;
41923;SDS011;27613;48.116;11.656;2022-11-21T16:46:19;27.23;;;14.15;;
41923;SDS011;27613;48.116;11.656;2022-11-21T16:48:46;15.43;;;11.05;;
41923;SDS011;27613;48.116;11.656;2022-11-21T16:51:15;8.10;;;5.45;;
41923;SDS011;27613;48.116;11.656;2022-11-21T16:53:45;6.57;;;3.53;;
41923;SDS011;27613;48.116;11.656;2022-11-21T16:56:13;5.10;;;2.60;;
41923;SDS011;27613;48.116;11.656;2022-11-21T16:58:39;5.68;;;2.88;;
41923;SDS011;27613;48.116;11.656;2022-11-21T17:01:13;6.30;;;2.70;;
41923;SDS011;27613;48.116;11.656;2022-11-21T17:03:41;7.72;;;5.10;;
41923;SDS011;27613;48.116;11.656;2022-11-21T17:06:08;10.40;;;6.70;;